sensor_id;sensor_type;location;lat;lon;timestamp;pressure;altitude;pressure_sealevel;temperature;humidity
39275;BME280;24980;48.874;2.332;2023-02-23T00:01:30;100876.08;;;24.83;44.67
39275;BME280;24980;48.874;2.332;2023-02-23T00:04:05;100876.48;;;24.84;44.72
39275;BME280;24980;48.874;2.332;2023-02-23T00:06:33;100878.38;;;24.86;44.76
39275;BME280;24980;48.874;2.332;2023-02-23T00:09:03;100875.98;;;24.87;44.83
39275;BME280;24980;48.874;2.332;2023-02-23T00:11:32;100871.95;;;24.89;44.92
39275;BME280;24980;48.874;2.332;2023-02-23T00:14:03;100870.58;;;24.90;45.02
39275;BME280;24980;48.874;2.332;2023-02-23T00:16:34;100867.72;;;24.92;45.10
39275;BME280;24980;48.874;2.332;2023-02-23T00:19:06;100870.00;;;24.92;45.18
39275;BME280;24980;48.874;2.332;2023-02-23T00:21:39;100867.19;;;24.93;45.21
39275;BME280;24980;48.874;2.332;2023-02-23T00:24:08;100869.41;;;24.92;45.25
39275;BME280;24980;48.874;2.332;2023-02-23T00:26:38;100871.83;;;24.91;45.28
39275;BME280;24980;48.874;2.332;2023-02-23T00:29:12;100869.99;;;24.89;45.31
39275;BME280;24980;48.874;2.332;2023-02-23T00:31:38;100866.86;;;24.89;45.33
39275;BME280;24980;48.874;2.332;2023-02-23T00:34:10;100873.45;;;24.90;45.33
39275;BME280;24980;48.874;2.332;2023-02-23T00:36:38;100873.80;;;24.89;45.33
39275;BME280;24980;48.874;2.332;2023-02-23T00:39:10;100871.34;;;24.89;45.36
39275;BME280;24980;48.874;2.332;2023-02-23T00:41:39;100870.76;;;24.89;45.38
39275;BME280;24980;48.874;2.332;2023-02-23T00:44:14;100865.00;;;24.88;45.40
39275;BME280;24980;48.874;2.332;2023-02-23T00:46:41;100872.50;;;24.88;45.42
39275;BME280;24980;48.874;2.332;2023-02-23T00:49:12;100875.31;;;24.87;45.47
39275;BME280;24980;48.874;2.332;2023-02-23T00:51:42;100875.65;;;24.87;45.49
39275;BME280;24980;48.874;2.332;2023-02-23T00:54:14;100871.61;;;24.86;45.52
39275;BME280;24980;48.874;2.332;2023-02-23T00:56:44;100875.59;;;24.86;45.53
39275;BME280;24980;48.874;2.332;2023-02-23T00:59:14;100873.80;;;24.86;45.53
39275;BME280;24980;48.874;2.332;2023-02-23T01:01:43;100877.16;;;24.85;45.52
39275;BME280;24980;48.874;2.332;2023-02-23T01:04:14;100873.69;;;24.85;45.52
39275;BME280;24980;48.874;2.332;2023-02-23T01:06:45;100877.25;;;24.85;45.52
39275;BME280;24980;48.874;2.332;2023-02-23T01:09:16;100880.72;;;24.85;45.53
39275;BME280;24980;48.874;2.332;2023-02-23T01:11:49;100875.90;;;24.84;45.53
39275;BME280;24980;48.874;2.332;2023-02-23T01:14:17;100873.52;;;24.84;45.53
39275;BME280;24980;48.874;2.332;2023-02-23T01:16:48;100877.34;;;24.84;45.54
39275;BME280;24980;48.874;2.332;2023-02-23T01:19:18;100881.16;;;24.84;45.54
39275;BME280;24980;48.874;2.332;2023-02-23T01:21:49;100875.91;;;24.83;45.55
39275;BME280;24980;48.874;2.332;2023-02-23T01:24:19;100882.79;;;24.82;45.55
39275;BME280;24980;48.874;2.332;2023-02-23T01:26:50;100886.88;;;24.81;45.56
39275;BME280;24980;48.874;2.332;2023-02-23T01:29:20;100887.20;;;24.82;45.58
39275;BME280;24980;48.874;2.332;2023-02-23T01:31:51;100880.69;;;24.81;45.60
39275;BME280;24980;48.874;2.332;2023-02-23T01:34:21;100883.56;;;24.82;45.61
39275;BME280;24980;48.874;2.332;2023-02-23T01:36:55;100881.95;;;24.82;45.62
39275;BME280;24980;48.874;2.332;2023-02-23T01:39:23;100878.52;;;24.82;45.64
39275;BME280;24980;48.874;2.332;2023-02-23T01:41:56;100886.03;;;24.81;45.65
39275;BME280;24980;48.874;2.332;2023-02-23T01:46:53;100883.31;;;24.81;45.66
39275;BME280;24980;48.874;2.332;2023-02-23T01:49:26;100878.24;;;24.80;45.66
39275;BME280;24980;48.874;2.332;2023-02-23T01:52:06;100883.34;;;24.80;45.66
39275;BME280;24980;48.874;2.332;2023-02-23T01:54:30;100887.08;;;24.79;45.67
39275;BME280;24980;48.874;2.332;2023-02-23T01:56:57;100883.81;;;24.78;45.67
39275;BME280;24980;48.874;2.332;2023-02-23T01:59:28;100883.98;;;24.78;45.68
39275;BME280;24980;48.874;2.332;2023-02-23T02:01:59;100884.54;;;24.79;45.68
39275;BME280;24980;48.874;2.332;2023-02-23T02:04:28;100887.80;;;24.78;45.69
39275;BME280;24980;48.874;2.332;2023-02-23T02:06:58;100882.89;;;24.78;45.71
39275;BME280;24980;48.874;2.332;2023-02-23T02:09:28;100877.72;;;24.78;45.71
39275;BME280;24980;48.874;2.332;2023-02-23T02:12:01;100876.62;;;24.78;45.71
39275;BME280;24980;48.874;2.332;2023-02-23T02:14:30;100872.30;;;24.78;45.72
39275;BME280;24980;48.874;2.332;2023-02-23T02:17:21;100874.41;;;24.78;45.74
39275;BME280;24980;48.874;2.332;2023-02-23T02:29:50;100868.15;;;24.77;45.81
39275;BME280;24980;48.874;2.332;2023-02-23T02:32:36;100871.45;;;24.77;45.82
39275;BME280;24980;48.874;2.332;2023-02-23T02:35:07;100871.47;;;24.77;45.84
39275;BME280;24980;48.874;2.332;2023-02-23T02:39:55;100873.24;;;24.77;45.87
39275;BME280;24980;48.874;2.332;2023-02-23T02:42:25;100881.55;;;24.77;45.88
39275;BME280;24980;48.874;2.332;2023-02-23T02:47:10;100881.29;;;24.77;45.91
39275;BME280;24980;48.874;2.332;2023-02-23T02:49:44;100876.05;;;24.76;45.92
39275;BME280;24980;48.874;2.332;2023-02-23T02:52:23;100874.26;;;24.77;45.92
39275;BME280;24980;48.874;2.332;2023-02-23T02:54:40;100873.08;;;24.76;45.94
39275;BME280;24980;48.874;2.332;2023-02-23T02:57:08;100879.02;;;24.76;45.95
39275;BME280;24980;48.874;2.332;2023-02-23T02:59:47;100871.04;;;24.77;45.95
39275;BME280;24980;48.874;2.332;2023-02-23T03:02:15;100869.94;;;24.77;45.95
39275;BME280;24980;48.874;2.332;2023-02-23T03:04:37;100873.16;;;24.77;45.96
39275;BME280;24980;48.874;2.332;2023-02-23T03:07:15;100866.80;;;24.77;45.96
39275;BME280;24980;48.874;2.332;2023-02-23T03:10:00;100865.69;;;24.77;45.99
39275;BME280;24980;48.874;2.332;2023-02-23T03:12:25;100862.80;;;24.78;46.02
39275;BME280;24980;48.874;2.332;2023-02-23T03:15:02;100863.91;;;24.77;46.05
39275;BME280;24980;48.874;2.332;2023-02-23T03:17:22;100863.30;;;24.78;46.06
39275;BME280;24980;48.874;2.332;2023-02-23T03:19:56;100867.80;;;24.78;46.04
39275;BME280;24980;48.874;2.332;2023-02-23T03:22:25;100871.53;;;24.78;46.04
39275;BME280;24980;48.874;2.332;2023-02-23T03:24:50;100868.05;;;24.78;46.02
39275;BME280;24980;48.874;2.332;2023-02-23T03:27:22;100864.58;;;24.78;46.01
39275;BME280;24980;48.874;2.332;2023-02-23T03:30:10;100867.38;;;24.78;46.01
39275;BME280;24980;48.874;2.332;2023-02-23T03:32:23;100868.38;;;24.79;46.01
39275;BME280;24980;48.874;2.332;2023-02-23T03:37:26;100874.91;;;24.78;46.03
39275;BME280;24980;48.874;2.332;2023-02-23T03:39:52;100870.44;;;24.78;46.04
39275;BME280;24980;48.874;2.332;2023-02-23T03:42:20;100870.09;;;24.78;46.04
39275;BME280;24980;48.874;2.332;2023-02-23T03:44:49;100875.70;;;24.77;46.05
39275;BME280;24980;48.874;2.332;2023-02-23T03:47:22;100870.19;;;24.77;46.07
39275;BME280;24980;48.874;2.332;2023-02-23T03:49:49;100870.94;;;24.78;46.07
39275;BME280;24980;48.874;2.332;2023-02-23T03:52:22;100868.74;;;24.77;46.08
39275;BME280;24980;48.874;2.332;2023-02-23T03:54:55;100866.70;;;24.78;46.08
39275;BME280;24980;48.874;2.332;2023-02-23T03:57:21;100868.06;;;24.78;46.09
39275;BME280;24980;48.874;2.332;2023-02-23T03:59:54;100863.89;;;24.78;46.07
39275;BME280;24980;48.874;2.332;2023-02-23T04:02:23;100869.41;;;24.78;46.08
39275;BME280;24980;48.874;2.332;2023-02-23T04:04:58;100869.42;;;24.78;46.09
39275;BME280;24980;48.874;2.332;2023-02-23T04:07:23;100873.48;;;24.78;46.09
39275;BME280;24980;48.874;2.332;2023-02-23T04:09:53;100878.48;;;24.78;46.09
39275;BME280;24980;48.874;2.332;2023-02-23T04:12:36;100881.19;;;24.78;46.09
39275;BME280;24980;48.874;2.332;2023-02-23T04:15:14;100875.85;;;24.78;46.09
39275;BME280;24980;48.874;2.332;2023-02-23T04:17:27;100884.11;;;24.79;46.08
39275;BME280;24980;48.874;2.332;2023-02-23T04:19:55;100882.75;;;24.80;46.07
39275;BME280;24980;48.874;2.332;2023-02-23T04:22:24;100882.31;;;24.80;46.07
39275;BME280;24980;48.874;2.332;2023-02-23T04:24:58;100883.24;;;24.81;46.07
39275;BME280;24980;48.874;2.332;2023-02-23T04:27:26;100884.42;;;24.81;46.07
39275;BME280;24980;48.874;2.332;2023-02-23T04:29:56;100892.20;;;24.82;46.08
39275;BME280;24980;48.874;2.332;2023-02-23T04:32:27;100891.11;;;24.81;46.08
39275;BME280;24980;48.874;2.332;2023-02-23T04:34:57;100894.67;;;24.82;46.09
39275;BME280;24980;48.874;2.332;2023-02-23T04:37:27;100893.56;;;24.82;46.10
39275;BME280;24980;48.874;2.332;2023-02-23T04:39:59;100892.88;;;24.83;46.10
39275;BME280;24980;48.874;2.332;2023-02-23T04:42:29;100891.42;;;24.83;46.11
39275;BME280;24980;48.874;2.332;2023-02-23T04:45:00;100894.73;;;24.84;46.12
39275;BME280;24980;48.874;2.332;2023-02-23T04:47:33;100895.50;;;24.83;46.13
39275;BME280;24980;48.874;2.332;2023-02-23T04:50:01;100900.48;;;24.84;46.13
39275;BME280;24980;48.874;2.332;2023-02-23T04:52:34;100890.40;;;24.84;46.14
39275;BME280;24980;48.874;2.332;2023-02-23T04:55:06;100890.23;;;24.84;46.15
39275;BME280;24980;48.874;2.332;2023-02-23T04:57:32;100894.55;;;24.84;46.16
39275;BME280;24980;48.874;2.332;2023-02-23T05:00:02;100905.81;;;24.85;46.16
39275;BME280;24980;48.874;2.332;2023-02-23T05:02:32;100910.27;;;24.85;46.19
39275;BME280;24980;48.874;2.332;2023-02-23T05:05:03;100915.52;;;24.86;46.21
39275;BME280;24980;48.874;2.332;2023-02-23T05:07:34;100917.88;;;24.87;46.22
39275;BME280;24980;48.874;2.332;2023-02-23T05:10:05;100919.17;;;24.89;46.24
39275;BME280;24980;48.874;2.332;2023-02-23T05:12:34;100923.33;;;24.89;46.24
39275;BME280;24980;48.874;2.332;2023-02-23T05:15:05;100926.95;;;24.90;46.25
39275;BME280;24980;48.874;2.332;2023-02-23T05:17:40;100931.95;;;24.90;46.26
39275;BME280;24980;48.874;2.332;2023-02-23T05:20:07;100930.02;;;24.90;46.25
39275;BME280;24980;48.874;2.332;2023-02-23T05:22:37;100927.72;;;24.90;46.26
39275;BME280;24980;48.874;2.332;2023-02-23T05:25:07;100927.05;;;24.90;46.25
39275;BME280;24980;48.874;2.332;2023-02-23T05:27:37;100932.11;;;24.91;46.25
39275;BME280;24980;48.874;2.332;2023-02-23T05:30:08;100929.56;;;24.92;46.23
39275;BME280;24980;48.874;2.332;2023-02-23T05:32:38;100934.17;;;24.93;46.22
39275;BME280;24980;48.874;2.332;2023-02-23T05:35:08;100937.97;;;24.94;46.22
39275;BME280;24980;48.874;2.332;2023-02-23T05:37:39;100941.78;;;24.94;46.23
39275;BME280;24980;48.874;2.332;2023-02-23T05:40:11;100945.38;;;24.96;46.25
39275;BME280;24980;48.874;2.332;2023-02-23T05:42:42;100945.62;;;24.96;46.30
39275;BME280;24980;48.874;2.332;2023-02-23T05:45:11;100945.64;;;24.95;46.35
39275;BME280;24980;48.874;2.332;2023-02-23T05:47:42;100946.81;;;24.96;46.38
39275;BME280;24980;48.874;2.332;2023-02-23T05:50:15;100946.05;;;24.97;46.36
39275;BME280;24980;48.874;2.332;2023-02-23T05:52:43;100947.73;;;24.98;46.33
39275;BME280;24980;48.874;2.332;2023-02-23T05:55:13;100942.75;;;24.99;46.31
39275;BME280;24980;48.874;2.332;2023-02-23T05:57:43;100942.25;;;24.99;46.29
39275;BME280;24980;48.874;2.332;2023-02-23T06:00:17;100940.22;;;24.99;46.28
39275;BME280;24980;48.874;2.332;2023-02-23T06:02:44;100936.05;;;24.99;46.26
39275;BME280;24980;48.874;2.332;2023-02-23T06:05:15;100938.77;;;24.99;46.26
39275;BME280;24980;48.874;2.332;2023-02-23T06:07:45;100938.85;;;24.99;46.25
39275;BME280;24980;48.874;2.332;2023-02-23T06:10:17;100937.25;;;24.99;46.25
39275;BME280;24980;48.874;2.332;2023-02-23T06:12:45;100937.92;;;24.99;46.23
39275;BME280;24980;48.874;2.332;2023-02-23T06:15:16;100939.27;;;24.99;46.22
39275;BME280;24980;48.874;2.332;2023-02-23T06:17:46;100937.65;;;25.00;46.21
39275;BME280;24980;48.874;2.332;2023-02-23T06:20:16;100938.78;;;25.02;46.19
39275;BME280;24980;48.874;2.332;2023-02-23T06:22:47;100940.22;;;25.02;46.19
39275;BME280;24980;48.874;2.332;2023-02-23T06:25:17;100941.83;;;25.03;46.18
39275;BME280;24980;48.874;2.332;2023-02-23T06:27:48;100938.20;;;25.01;46.19
39275;BME280;24980;48.874;2.332;2023-02-23T06:30:21;100939.30;;;25.02;46.19
39275;BME280;24980;48.874;2.332;2023-02-23T06:32:49;100946.08;;;25.02;46.20
39275;BME280;24980;48.874;2.332;2023-02-23T06:35:20;100939.72;;;25.02;46.19
39275;BME280;24980;48.874;2.332;2023-02-23T06:37:51;100937.93;;;25.02;46.20
39275;BME280;24980;48.874;2.332;2023-02-23T06:40:21;100938.19;;;25.02;46.21
39275;BME280;24980;48.874;2.332;2023-02-23T06:42:51;100940.20;;;25.03;46.22
39275;BME280;24980;48.874;2.332;2023-02-23T06:45:22;100938.45;;;25.04;46.20
39275;BME280;24980;48.874;2.332;2023-02-23T06:47:52;100939.73;;;25.05;46.21
39275;BME280;24980;48.874;2.332;2023-02-23T06:50:25;100943.03;;;25.05;46.22
39275;BME280;24980;48.874;2.332;2023-02-23T06:52:56;100946.55;;;25.04;46.23
39275;BME280;24980;48.874;2.332;2023-02-23T06:55:23;100947.11;;;25.04;46.23
39275;BME280;24980;48.874;2.332;2023-02-23T06:57:56;100954.23;;;25.04;46.24
39275;BME280;24980;48.874;2.332;2023-02-23T07:00:25;100960.84;;;25.04;46.24
39275;BME280;24980;48.874;2.332;2023-02-23T07:02:56;100966.17;;;25.05;46.24
39275;BME280;24980;48.874;2.332;2023-02-23T07:05:28;100967.02;;;25.06;46.23
39275;BME280;24980;48.874;2.332;2023-02-23T07:07:57;100965.91;;;25.06;46.24
39275;BME280;24980;48.874;2.332;2023-02-23T07:10:27;100967.94;;;25.06;46.21
39275;BME280;24980;48.874;2.332;2023-02-23T07:12:59;100963.20;;;24.98;45.92
39275;BME280;24980;48.874;2.332;2023-02-23T07:15:28;100962.92;;;24.89;45.48
39275;BME280;24980;48.874;2.332;2023-02-23T07:18:00;100962.23;;;24.78;45.04
39275;BME280;24980;48.874;2.332;2023-02-23T07:20:29;100966.73;;;24.70;44.64
39275;BME280;24980;48.874;2.332;2023-02-23T07:23:01;100969.68;;;24.63;44.27
39275;BME280;24980;48.874;2.332;2023-02-23T07:25:30;100970.98;;;24.55;43.95
39275;BME280;24980;48.874;2.332;2023-02-23T07:28:04;100974.86;;;24.47;43.66
39275;BME280;24980;48.874;2.332;2023-02-23T07:30:32;100985.74;;;24.42;43.39
39275;BME280;24980;48.874;2.332;2023-02-23T07:33:02;100988.77;;;24.35;43.16
39275;BME280;24980;48.874;2.332;2023-02-23T07:35:33;100994.23;;;24.30;42.99
39275;BME280;24980;48.874;2.332;2023-02-23T07:38:06;100998.45;;;24.30;42.89
39275;BME280;24980;48.874;2.332;2023-02-23T07:40:34;100998.61;;;24.34;42.87
39275;BME280;24980;48.874;2.332;2023-02-23T07:43:08;101009.36;;;24.39;42.88
39275;BME280;24980;48.874;2.332;2023-02-23T07:45:36;101007.20;;;24.45;42.93
39275;BME280;24980;48.874;2.332;2023-02-23T07:48:06;101004.95;;;24.51;42.97
39275;BME280;24980;48.874;2.332;2023-02-23T07:50:42;101011.39;;;24.55;43.03
39275;BME280;24980;48.874;2.332;2023-02-23T07:53:07;101013.62;;;24.58;43.09
39275;BME280;24980;48.874;2.332;2023-02-23T07:55:39;101012.59;;;24.54;43.07
39275;BME280;24980;48.874;2.332;2023-02-23T07:58:08;101008.36;;;24.42;42.91
39275;BME280;24980;48.874;2.332;2023-02-23T08:00:39;101006.17;;;24.29;42.75
39275;BME280;24980;48.874;2.332;2023-02-23T08:03:10;101008.73;;;24.16;42.65
39275;BME280;24980;48.874;2.332;2023-02-23T08:05:41;101006.99;;;24.04;42.54
39275;BME280;24980;48.874;2.332;2023-02-23T08:08:11;101006.24;;;23.95;42.45
39275;BME280;24980;48.874;2.332;2023-02-23T08:10:42;101008.95;;;23.89;42.33
39275;BME280;24980;48.874;2.332;2023-02-23T08:13:13;101008.19;;;23.81;42.24
39275;BME280;24980;48.874;2.332;2023-02-23T08:15:43;101006.79;;;23.74;42.15
39275;BME280;24980;48.874;2.332;2023-02-23T08:18:14;101010.88;;;23.69;42.04
39275;BME280;24980;48.874;2.332;2023-02-23T08:20:44;101010.86;;;23.63;41.97
39275;BME280;24980;48.874;2.332;2023-02-23T08:23:15;101012.06;;;23.58;41.91
39275;BME280;24980;48.874;2.332;2023-02-23T08:25:45;101008.38;;;23.51;41.86
39275;BME280;24980;48.874;2.332;2023-02-23T08:28:16;101008.31;;;23.44;41.84
39275;BME280;24980;48.874;2.332;2023-02-23T08:30:47;101007.91;;;23.40;41.77
39275;BME280;24980;48.874;2.332;2023-02-23T08:33:17;101005.38;;;23.37;41.71
39275;BME280;24980;48.874;2.332;2023-02-23T08:35:49;101006.20;;;23.38;41.61
39275;BME280;24980;48.874;2.332;2023-02-23T08:38:20;101002.27;;;23.36;41.51
39275;BME280;24980;48.874;2.332;2023-02-23T08:40:51;101004.51;;;23.34;41.47
39275;BME280;24980;48.874;2.332;2023-02-23T08:43:21;101005.30;;;23.37;41.41
39275;BME280;24980;48.874;2.332;2023-02-23T08:45:50;101008.05;;;23.46;41.34
39275;BME280;24980;48.874;2.332;2023-02-23T08:48:21;101011.69;;;23.55;41.31
39275;BME280;24980;48.874;2.332;2023-02-23T08:50:54;101015.84;;;23.65;41.28
39275;BME280;24980;48.874;2.332;2023-02-23T08:53:21;101014.66;;;23.73;41.25
39275;BME280;24980;48.874;2.332;2023-02-23T08:55:55;101016.41;;;23.80;41.22
39275;BME280;24980;48.874;2.332;2023-02-23T08:58:22;101022.88;;;23.87;41.19
39275;BME280;24980;48.874;2.332;2023-02-23T09:00:53;101022.39;;;23.92;41.17
39275;BME280;24980;48.874;2.332;2023-02-23T09:03:26;101017.38;;;23.95;41.15
39275;BME280;24980;48.874;2.332;2023-02-23T09:06:04;101022.82;;;23.99;41.13
39275;BME280;24980;48.874;2.332;2023-02-23T09:08:26;101020.59;;;24.01;41.14
39275;BME280;24980;48.874;2.332;2023-02-23T09:10:56;101023.67;;;24.04;41.13
39275;BME280;24980;48.874;2.332;2023-02-23T09:13:27;101022.67;;;24.08;41.12
39275;BME280;24980;48.874;2.332;2023-02-23T09:15:57;101022.45;;;24.11;41.11
39275;BME280;24980;48.874;2.332;2023-02-23T09:18:31;101024.20;;;24.13;41.10
39275;BME280;24980;48.874;2.332;2023-02-23T09:21:01;101030.99;;;24.17;41.09
39275;BME280;24980;48.874;2.332;2023-02-23T09:23:29;101033.91;;;24.19;41.11
39275;BME280;24980;48.874;2.332;2023-02-23T09:26:03;101034.48;;;24.20;41.11
39275;BME280;24980;48.874;2.332;2023-02-23T09:28:30;101037.83;;;24.21;41.11
39275;BME280;24980;48.874;2.332;2023-02-23T09:31:12;101035.70;;;24.22;41.11
39275;BME280;24980;48.874;2.332;2023-02-23T09:33:30;101031.98;;;24.22;41.11
39275;BME280;24980;48.874;2.332;2023-02-23T09:36:08;101034.59;;;24.23;41.10
39275;BME280;24980;48.874;2.332;2023-02-23T09:38:32;101044.67;;;24.23;41.09
39275;BME280;24980;48.874;2.332;2023-02-23T09:41:04;101043.05;;;24.24;41.08
39275;BME280;24980;48.874;2.332;2023-02-23T09:43:50;101042.43;;;24.24;41.06
39275;BME280;24980;48.874;2.332;2023-02-23T09:48:34;101051.15;;;24.24;41.03
39275;BME280;24980;48.874;2.332;2023-02-23T09:51:06;101053.02;;;24.24;41.01
39275;BME280;24980;48.874;2.332;2023-02-23T09:53:38;101058.61;;;24.24;40.98
39275;BME280;24980;48.874;2.332;2023-02-23T09:58:37;101062.21;;;24.22;40.96
39275;BME280;24980;48.874;2.332;2023-02-23T10:03:40;101052.94;;;24.21;40.93
39275;BME280;24980;48.874;2.332;2023-02-23T10:06:11;101055.53;;;24.21;40.92
39275;BME280;24980;48.874;2.332;2023-02-23T10:11:28;101054.59;;;24.22;40.86
39275;BME280;24980;48.874;2.332;2023-02-23T10:13:54;101051.97;;;24.22;40.84
39275;BME280;24980;48.874;2.332;2023-02-23T10:16:44;101052.80;;;24.23;40.82
39275;BME280;24980;48.874;2.332;2023-02-23T10:18:49;101054.25;;;24.23;40.79
39275;BME280;24980;48.874;2.332;2023-02-23T10:21:20;101051.53;;;24.23;40.77
39275;BME280;24980;48.874;2.332;2023-02-23T10:23:56;101053.33;;;24.22;40.76
39275;BME280;24980;48.874;2.332;2023-02-23T10:26:20;101049.86;;;24.21;40.75
39275;BME280;24980;48.874;2.332;2023-02-23T10:28:44;101054.73;;;24.20;40.74
39275;BME280;24980;48.874;2.332;2023-02-23T10:31:36;101056.33;;;24.21;40.73
39275;BME280;24980;48.874;2.332;2023-02-23T10:33:44;101056.47;;;24.21;40.71
39275;BME280;24980;48.874;2.332;2023-02-23T10:36:18;101058.91;;;24.22;40.68
39275;BME280;24980;48.874;2.332;2023-02-23T10:38:46;101056.21;;;24.21;40.67
39275;BME280;24980;48.874;2.332;2023-02-23T10:41:16;101054.80;;;24.21;40.66
39275;BME280;24980;48.874;2.332;2023-02-23T10:43:47;101052.83;;;24.21;40.63
39275;BME280;24980;48.874;2.332;2023-02-23T10:46:21;101052.69;;;24.21;40.62
39275;BME280;24980;48.874;2.332;2023-02-23T10:48:50;101058.50;;;24.21;40.61
39275;BME280;24980;48.874;2.332;2023-02-23T10:51:25;101055.40;;;24.21;40.60
39275;BME280;24980;48.874;2.332;2023-02-23T10:53:50;101062.35;;;24.20;40.61
39275;BME280;24980;48.874;2.332;2023-02-23T10:56:22;101058.62;;;24.20;40.60
39275;BME280;24980;48.874;2.332;2023-02-23T10:58:54;101061.43;;;24.19;40.59
39275;BME280;24980;48.874;2.332;2023-02-23T11:01:42;101062.52;;;24.20;40.58
39275;BME280;24980;48.874;2.332;2023-02-23T11:03:52;101061.46;;;24.21;40.56
39275;BME280;24980;48.874;2.332;2023-02-23T11:06:28;101052.14;;;24.22;40.55
39275;BME280;24980;48.874;2.332;2023-02-23T11:08:54;101052.98;;;24.23;40.54
39275;BME280;24980;48.874;2.332;2023-02-23T11:11:26;101050.34;;;24.23;40.53
39275;BME280;24980;48.874;2.332;2023-02-23T11:13:56;101051.23;;;24.24;40.50
39275;BME280;24980;48.874;2.332;2023-02-23T11:16:30;101047.80;;;24.24;40.50
39275;BME280;24980;48.874;2.332;2023-02-23T11:18:58;101046.16;;;24.25;40.49
39275;BME280;24980;48.874;2.332;2023-02-23T11:21:29;101048.86;;;24.24;40.48
39275;BME280;24980;48.874;2.332;2023-02-23T11:24:01;101047.63;;;24.23;40.47
39275;BME280;24980;48.874;2.332;2023-02-23T11:26:40;101043.75;;;24.22;40.47
39275;BME280;24980;48.874;2.332;2023-02-23T11:29:03;101040.95;;;24.23;40.46
39275;BME280;24980;48.874;2.332;2023-02-23T11:31:34;101037.40;;;24.22;40.45
39275;BME280;24980;48.874;2.332;2023-02-23T11:34:02;101035.95;;;24.22;40.42
39275;BME280;24980;48.874;2.332;2023-02-23T11:36:33;101034.52;;;24.23;40.41
39275;BME280;24980;48.874;2.332;2023-02-23T11:39:04;101031.80;;;24.23;40.39
39275;BME280;24980;48.874;2.332;2023-02-23T11:41:32;101038.00;;;24.22;40.39
39275;BME280;24980;48.874;2.332;2023-02-23T11:44:03;101039.39;;;24.21;40.39
39275;BME280;24980;48.874;2.332;2023-02-23T11:46:36;101040.75;;;24.20;40.36
39275;BME280;24980;48.874;2.332;2023-02-23T11:49:07;101030.69;;;24.19;40.35
39275;BME280;24980;48.874;2.332;2023-02-23T11:51:39;101031.37;;;24.19;40.33
39275;BME280;24980;48.874;2.332;2023-02-23T11:54:05;101028.19;;;24.18;40.33
39275;BME280;24980;48.874;2.332;2023-02-23T11:56:34;101030.14;;;24.17;40.30
39275;BME280;24980;48.874;2.332;2023-02-23T11:59:07;101033.53;;;24.17;40.29
39275;BME280;24980;48.874;2.332;2023-02-23T12:01:52;101032.09;;;24.18;40.26
39275;BME280;24980;48.874;2.332;2023-02-23T12:04:06;101030.73;;;24.18;40.25
39275;BME280;24980;48.874;2.332;2023-02-23T12:06:38;101027.27;;;24.17;40.23
39275;BME280;24980;48.874;2.332;2023-02-23T12:09:21;101020.79;;;24.18;40.22
39275;BME280;24980;48.874;2.332;2023-02-23T12:11:41;101016.47;;;24.18;40.19
39275;BME280;24980;48.874;2.332;2023-02-23T12:14:19;101015.41;;;24.17;40.18
39275;BME280;24980;48.874;2.332;2023-02-23T12:16:41;101014.31;;;24.17;40.17
39275;BME280;24980;48.874;2.332;2023-02-23T12:26:48;101015.48;;;24.13;40.12
39275;BME280;24980;48.874;2.332;2023-02-23T12:29:24;101018.45;;;24.12;40.11
39275;BME280;24980;48.874;2.332;2023-02-23T12:31:46;101017.34;;;24.13;40.09
39275;BME280;24980;48.874;2.332;2023-02-23T12:34:28;101012.61;;;24.12;40.06
39275;BME280;24980;48.874;2.332;2023-02-23T12:46:49;100999.74;;;24.11;40.00
39275;BME280;24980;48.874;2.332;2023-02-23T12:49:53;100995.84;;;24.11;39.98
39275;BME280;24980;48.874;2.332;2023-02-23T12:51:53;100998.66;;;24.10;39.97
39275;BME280;24980;48.874;2.332;2023-02-23T12:54:17;101008.56;;;24.10;39.96
39275;BME280;24980;48.874;2.332;2023-02-23T12:59:41;101007.47;;;24.10;39.94
39275;BME280;24980;48.874;2.332;2023-02-23T13:01:58;101004.16;;;24.11;39.93
39275;BME280;24980;48.874;2.332;2023-02-23T13:04:38;101002.88;;;24.11;39.91
39275;BME280;24980;48.874;2.332;2023-02-23T13:06:57;101000.59;;;24.12;39.88
39275;BME280;24980;48.874;2.332;2023-02-23T13:09:42;101000.58;;;24.12;39.88
39275;BME280;24980;48.874;2.332;2023-02-23T13:12:32;101002.53;;;24.12;39.87
39275;BME280;24980;48.874;2.332;2023-02-23T13:14:41;101000.84;;;24.11;39.87
39275;BME280;24980;48.874;2.332;2023-02-23T13:17:04;100997.89;;;24.10;39.86
39275;BME280;24980;48.874;2.332;2023-02-23T13:19:40;100998.06;;;24.11;39.86
39275;BME280;24980;48.874;2.332;2023-02-23T13:22:32;100990.44;;;24.10;39.85
39275;BME280;24980;48.874;2.332;2023-02-23T13:24:35;100993.23;;;24.10;39.84
39275;BME280;24980;48.874;2.332;2023-02-23T13:27:18;100986.80;;;24.10;39.84
39275;BME280;24980;48.874;2.332;2023-02-23T13:29:39;100989.27;;;24.09;39.83
39275;BME280;24980;48.874;2.332;2023-02-23T13:31:57;100987.48;;;24.09;39.83
39275;BME280;24980;48.874;2.332;2023-02-23T13:34:35;100986.81;;;24.08;39.83
39275;BME280;24980;48.874;2.332;2023-02-23T13:36:58;100981.91;;;24.08;39.83
39275;BME280;24980;48.874;2.332;2023-02-23T13:42:18;100974.84;;;24.06;39.83
39275;BME280;24980;48.874;2.332;2023-02-23T13:47:15;100971.59;;;24.05;39.83
39275;BME280;24980;48.874;2.332;2023-02-23T13:49:47;100977.61;;;24.04;39.83
39275;BME280;24980;48.874;2.332;2023-02-23T13:54:33;100982.55;;;24.02;39.83
39275;BME280;24980;48.874;2.332;2023-02-23T13:57:03;100978.86;;;24.01;39.82
39275;BME280;24980;48.874;2.332;2023-02-23T13:59:37;100978.78;;;24.01;39.82
39275;BME280;24980;48.874;2.332;2023-02-23T14:04:38;100975.79;;;23.98;39.80
39275;BME280;24980;48.874;2.332;2023-02-23T14:09:36;100975.80;;;23.97;39.80